»·PEaware :: N848SR KLAX-KSNA

N848SR :: KLAX-KSNA

FLIGHT INFORMATION

Flight Status: Arrived
Operator: Privately registered:
United States
More flights under this callsign
Pilot: Anonymous 20783 (20783)
Aircraft: CIRRUS SR-22
(SR22)
More flights by this aircraft type
Origin: KLAX Los Angeles Intl
United States
Destination: KSNA John Wayne-Orange Co
United States
More flights between these airports :: More routes between these airports
Route: +GARDY3 SLI
File this flight plan on PilotEdge
Remarks: i6 rrating
Altitude:
(Current/Filed)
4,000ft
Speed:
(Current/Filed)
150kts
Departed: 06-Dec-18 03:21 PM
Arrived: 06-Dec-18 03:54 PM
Distance/Time
Traveled:
31nm/0:33
Distance/Time
To Go:
Arrived

Flight Plot

Page will automatically refresh every two minutes.

Flight plan parsing failed; only flown route is shown


Map Options




Map Legend


Flown Route
Filed Route
Departure Airport
Arrival Airport
Navaid (VOR, NDB)
Fix

Horizontal Profiles

Position Reports

Time Latitude Longitude Heading Altitude Ground
Speed
06-Dec-18 14:50 33.933131 -118.399356 311 3ft 0kts
06-Dec-18 14:51 33.933131 -118.399356 311 3ft 0kts
06-Dec-18 14:52 33.933131 -118.399356 311 3ft 0kts
06-Dec-18 14:53 33.933131 -118.399356 311 3ft 0kts
06-Dec-18 14:54 33.933131 -118.399356 311 3ft 0kts
06-Dec-18 14:55 33.933131 -118.399356 311 3ft 0kts
06-Dec-18 14:56 33.933131 -118.399356 311 3ft 0kts
06-Dec-18 14:57 33.933131 -118.399356 311 3ft 0kts
06-Dec-18 14:58 33.933131 -118.399356 311 3ft 0kts
06-Dec-18 14:59 33.933131 -118.399356 311 3ft 0kts
06-Dec-18 15:00 33.933131 -118.399356 311 3ft 0kts
06-Dec-18 15:01 33.933131 -118.399356 311 3ft 0kts
06-Dec-18 15:02 33.933131 -118.399356 311 3ft 0kts
06-Dec-18 15:03 33.933131 -118.399356 311 3ft 0kts
06-Dec-18 15:04 33.933131 -118.399356 311 3ft 0kts
06-Dec-18 15:05 33.933131 -118.399356 311 3ft 0kts
06-Dec-18 15:06 33.933131 -118.399356 311 3ft 0kts
06-Dec-18 15:07 33.933131 -118.399356 311 3ft 0kts
06-Dec-18 15:08 33.933131 -118.399356 311 3ft 0kts
06-Dec-18 15:09 33.933131 -118.399356 311 3ft 0kts
06-Dec-18 15:10 33.933131 -118.399356 311 3ft 0kts
06-Dec-18 15:11 33.933131 -118.399356 311 3ft 0kts
06-Dec-18 15:12 33.933131 -118.399356 311 3ft 0kts
06-Dec-18 15:13 33.933131 -118.399356 311 3ft 0kts
06-Dec-18 15:14 33.933131 -118.399356 311 3ft 0kts
06-Dec-18 15:15 33.933131 -118.399356 311 3ft 0kts
06-Dec-18 15:16 33.933131 -118.399356 311 3ft 0kts
06-Dec-18 15:17 33.933131 -118.399356 311 3ft 0kts
06-Dec-18 15:18 33.933131 -118.399356 311 3ft 0kts
06-Dec-18 15:19 33.933837 -118.400230 309 3ft 18kts
06-Dec-18 15:20 33.933230 -118.410980 264 3ft 41kts
06-Dec-18 15:21 33.932634 -118.417033 264 3ft 7kts
06-Dec-18 15:22 33.932683 -118.417737 298 3ft 0kts
06-Dec-18 15:23 33.932683 -118.417737 298 3ft 0kts
06-Dec-18 15:24 33.933400 -118.418369 5 3ft 12kts
06-Dec-18 15:25 33.936161 -118.394687 81 571ft 101kts
06-Dec-18 15:26 33.940143 -118.360389 81 1826ft 107kts
06-Dec-18 15:27 33.944276 -118.324896 81 2806ft 120kts
06-Dec-18 15:28 33.938258 -118.283399 127 2793ft 145kts
06-Dec-18 15:29 33.912789 -118.244609 128 2792ft 151kts
06-Dec-18 15:30 33.886376 -118.205729 129 2791ft 151kts
06-Dec-18 15:31 33.859466 -118.166249 129 3428ft 153kts
06-Dec-18 15:32 33.830944 -118.124440 129 3782ft 173kts
06-Dec-18 15:33 33.803377 -118.084115 129 3775ft 131kts
06-Dec-18 15:34 33.785273 -118.053763 92 3793ft 118kts
06-Dec-18 15:35 33.799751 -118.013968 63 3794ft 143kts
06-Dec-18 15:36 33.822548 -117.957376 63 3790ft 151kts
06-Dec-18 15:37 33.859194 -117.866155 64 3789ft 152kts
06-Dec-18 15:38 33.891847 -117.784660 64 3788ft 151kts
06-Dec-18 15:39 33.907420 -117.745703 64 3787ft 122kts
06-Dec-18 15:40 33.923730 -117.711303 30 3787ft 119kts
06-Dec-18 15:41 33.953088 -117.693482 9 3786ft 119kts
06-Dec-18 15:42 33.960154 -117.719500 207 3786ft 118kts
06-Dec-18 15:43 33.928705 -117.712215 171 3784ft 119kts
06-Dec-18 15:44 33.898657 -117.727375 207 3789ft 119kts
06-Dec-18 15:45 33.869394 -117.745583 205 3789ft 119kts
06-Dec-18 15:46 33.840175 -117.764350 207 3491ft 119kts
06-Dec-18 15:47 33.811344 -117.782697 207 2900ft 117kts
06-Dec-18 15:48 33.782613 -117.800965 207 2274ft 117kts
06-Dec-18 15:49 33.754118 -117.819071 208 1640ft 116kts
06-Dec-18 15:50 33.726036 -117.836901 208 1016ft 112kts
06-Dec-18 15:51 33.701579 -117.852422 207 473ft 91kts
06-Dec-18 15:52 33.681062 -117.865423 209 15ft 71kts
06-Dec-18 15:53 33.678078 -117.868294 291 3ft 0kts
06-Dec-18 15:54 33.676498 -117.869836 205 3ft 9kts

Navigation Log

Ident Type
Flight plan parsing failed, navigation log unavailable